sensor_id;sensor_type;location;lat;lon;timestamp;P1;durP1;ratioP1;P2;durP2;ratioP2
46463;SDS011;32161;48.148;-1.554;2023-04-25T00:00:06;2.13;;;1.50;;
46463;SDS011;32161;48.148;-1.554;2023-04-25T00:02:35;6.13;;;1.75;;
46463;SDS011;32161;48.148;-1.554;2023-04-25T00:05:03;11.23;;;2.00;;
46463;SDS011;32161;48.148;-1.554;2023-04-25T00:07:31;5.60;;;1.50;;
46463;SDS011;32161;48.148;-1.554;2023-04-25T00:09:59;2.83;;;1.38;;
46463;SDS011;32161;48.148;-1.554;2023-04-25T00:12:28;2.42;;;1.75;;
46463;SDS011;32161;48.148;-1.554;2023-04-25T00:14:55;4.80;;;2.40;;
46463;SDS011;32161;48.148;-1.554;2023-04-25T00:17:23;8.05;;;2.50;;
46463;SDS011;32161;48.148;-1.554;2023-04-25T00:19:51;4.68;;;2.03;;
46463;SDS011;32161;48.148;-1.554;2023-04-25T00:22:20;5.20;;;2.20;;
46463;SDS011;32161;48.148;-1.554;2023-04-25T00:24:47;5.50;;;2.40;;
46463;SDS011;32161;48.148;-1.554;2023-04-25T00:27:15;3.47;;;1.95;;
46463;SDS011;32161;48.148;-1.554;2023-04-25T00:29:44;3.88;;;1.83;;
46463;SDS011;32161;48.148;-1.554;2023-04-25T00:32:12;2.90;;;2.53;;
46463;SDS011;32161;48.148;-1.554;2023-04-25T00:34:39;6.75;;;2.53;;
46463;SDS011;32161;48.148;-1.554;2023-04-25T00:37:07;5.50;;;2.47;;
46463;SDS011;32161;48.148;-1.554;2023-04-25T00:39:35;7.00;;;1.70;;
46463;SDS011;32161;48.148;-1.554;2023-04-25T00:42:03;3.53;;;1.85;;
46463;SDS011;32161;48.148;-1.554;2023-04-25T00:44:31;4.95;;;2.35;;
46463;SDS011;32161;48.148;-1.554;2023-04-25T00:47:01;1.75;;;1.60;;
46463;SDS011;32161;48.148;-1.554;2023-04-25T00:49:29;3.60;;;1.10;;
46463;SDS011;32161;48.148;-1.554;2023-04-25T00:51:57;1.20;;;1.10;;
46463;SDS011;32161;48.148;-1.554;2023-04-25T00:54:25;2.70;;;1.38;;
46463;SDS011;32161;48.148;-1.554;2023-04-25T00:56:52;0.77;;;0.77;;
46463;SDS011;32161;48.148;-1.554;2023-04-25T00:59:20;1.10;;;1.10;;
46463;SDS011;32161;48.148;-1.554;2023-04-25T01:01:48;1.35;;;1.30;;
46463;SDS011;32161;48.148;-1.554;2023-04-25T01:04:17;2.38;;;1.80;;
46463;SDS011;32161;48.148;-1.554;2023-04-25T01:06:45;6.32;;;2.70;;
46463;SDS011;32161;48.148;-1.554;2023-04-25T01:09:13;8.43;;;3.50;;
46463;SDS011;32161;48.148;-1.554;2023-04-25T01:11:41;3.20;;;2.33;;
46463;SDS011;32161;48.148;-1.554;2023-04-25T01:14:08;1.10;;;1.10;;
46463;SDS011;32161;48.148;-1.554;2023-04-25T01:16:36;3.33;;;1.20;;
46463;SDS011;32161;48.148;-1.554;2023-04-25T01:19:04;4.43;;;1.20;;
46463;SDS011;32161;48.148;-1.554;2023-04-25T01:21:37;1.00;;;1.00;;
46463;SDS011;32161;48.148;-1.554;2023-04-25T01:24:05;2.47;;;1.40;;
46463;SDS011;32161;48.148;-1.554;2023-04-25T01:26:34;2.10;;;1.90;;
46463;SDS011;32161;48.148;-1.554;2023-04-25T01:29:03;3.13;;;2.78;;
46463;SDS011;32161;48.148;-1.554;2023-04-25T01:31:31;1.17;;;1.08;;
46463;SDS011;32161;48.148;-1.554;2023-04-25T01:34:00;2.53;;;2.33;;
46463;SDS011;32161;48.148;-1.554;2023-04-25T01:36:27;4.90;;;1.63;;
46463;SDS011;32161;48.148;-1.554;2023-04-25T01:38:57;5.07;;;1.90;;
46463;SDS011;32161;48.148;-1.554;2023-04-25T01:41:24;5.80;;;2.72;;
46463;SDS011;32161;48.148;-1.554;2023-04-25T01:43:52;9.57;;;3.92;;
46463;SDS011;32161;48.148;-1.554;2023-04-25T01:46:20;9.18;;;2.92;;
46463;SDS011;32161;48.148;-1.554;2023-04-25T01:48:48;6.82;;;3.15;;
46463;SDS011;32161;48.148;-1.554;2023-04-25T01:51:16;10.00;;;3.85;;
46463;SDS011;32161;48.148;-1.554;2023-04-25T01:53:43;9.50;;;3.78;;
46463;SDS011;32161;48.148;-1.554;2023-04-25T01:56:13;12.13;;;4.25;;
46463;SDS011;32161;48.148;-1.554;2023-04-25T01:58:40;5.55;;;3.70;;
46463;SDS011;32161;48.148;-1.554;2023-04-25T02:01:08;9.68;;;3.95;;
46463;SDS011;32161;48.148;-1.554;2023-04-25T02:03:36;9.73;;;3.60;;
46463;SDS011;32161;48.148;-1.554;2023-04-25T02:06:03;6.90;;;3.33;;
46463;SDS011;32161;48.148;-1.554;2023-04-25T02:08:31;6.97;;;3.88;;
46463;SDS011;32161;48.148;-1.554;2023-04-25T02:10:59;9.77;;;4.25;;
46463;SDS011;32161;48.148;-1.554;2023-04-25T02:13:29;5.80;;;3.03;;
46463;SDS011;32161;48.148;-1.554;2023-04-25T02:15:57;8.27;;;3.50;;
46463;SDS011;32161;48.148;-1.554;2023-04-25T02:18:25;8.30;;;3.08;;
46463;SDS011;32161;48.148;-1.554;2023-04-25T02:20:52;6.28;;;3.03;;
46463;SDS011;32161;48.148;-1.554;2023-04-25T02:23:20;6.75;;;2.88;;
46463;SDS011;32161;48.148;-1.554;2023-04-25T02:25:48;7.10;;;3.53;;
46463;SDS011;32161;48.148;-1.554;2023-04-25T02:28:16;6.25;;;3.95;;
46463;SDS011;32161;48.148;-1.554;2023-04-25T02:30:45;12.45;;;3.05;;
46463;SDS011;32161;48.148;-1.554;2023-04-25T02:33:12;9.82;;;3.70;;
46463;SDS011;32161;48.148;-1.554;2023-04-25T02:35:42;13.93;;;3.58;;
46463;SDS011;32161;48.148;-1.554;2023-04-25T02:38:09;6.80;;;2.75;;
46463;SDS011;32161;48.148;-1.554;2023-04-25T02:40:37;7.53;;;2.88;;
46463;SDS011;32161;48.148;-1.554;2023-04-25T02:43:05;8.98;;;2.78;;
46463;SDS011;32161;48.148;-1.554;2023-04-25T02:45:33;5.70;;;2.90;;
46463;SDS011;32161;48.148;-1.554;2023-04-25T02:48:03;9.60;;;2.63;;
46463;SDS011;32161;48.148;-1.554;2023-04-25T02:50:31;7.28;;;3.00;;
46463;SDS011;32161;48.148;-1.554;2023-04-25T02:52:59;12.27;;;3.28;;
46463;SDS011;32161;48.148;-1.554;2023-04-25T02:55:26;9.07;;;3.10;;
46463;SDS011;32161;48.148;-1.554;2023-04-25T02:57:54;12.20;;;2.83;;
46463;SDS011;32161;48.148;-1.554;2023-04-25T03:00:21;8.50;;;3.30;;
46463;SDS011;32161;48.148;-1.554;2023-04-25T03:02:49;8.35;;;3.30;;
46463;SDS011;32161;48.148;-1.554;2023-04-25T03:05:18;14.30;;;3.78;;
46463;SDS011;32161;48.148;-1.554;2023-04-25T03:07:46;6.63;;;2.70;;
46463;SDS011;32161;48.148;-1.554;2023-04-25T03:10:13;6.97;;;2.55;;
46463;SDS011;32161;48.148;-1.554;2023-04-25T03:12:41;11.57;;;4.38;;
46463;SDS011;32161;48.148;-1.554;2023-04-25T03:15:09;12.43;;;4.85;;
46463;SDS011;32161;48.148;-1.554;2023-04-25T03:17:37;16.92;;;5.20;;
46463;SDS011;32161;48.148;-1.554;2023-04-25T03:20:05;7.82;;;3.25;;
46463;SDS011;32161;48.148;-1.554;2023-04-25T03:22:36;8.98;;;3.00;;
46463;SDS011;32161;48.148;-1.554;2023-04-25T03:25:04;4.80;;;2.67;;
46463;SDS011;32161;48.148;-1.554;2023-04-25T03:27:33;10.50;;;3.55;;
46463;SDS011;32161;48.148;-1.554;2023-04-25T03:30:00;13.80;;;4.97;;
46463;SDS011;32161;48.148;-1.554;2023-04-25T03:32:28;7.55;;;2.90;;
46463;SDS011;32161;48.148;-1.554;2023-04-25T03:34:56;12.35;;;4.00;;
46463;SDS011;32161;48.148;-1.554;2023-04-25T03:37:23;13.25;;;4.05;;
46463;SDS011;32161;48.148;-1.554;2023-04-25T03:39:52;9.52;;;4.45;;
46463;SDS011;32161;48.148;-1.554;2023-04-25T03:42:20;9.05;;;3.58;;
46463;SDS011;32161;48.148;-1.554;2023-04-25T03:44:48;11.48;;;3.00;;
46463;SDS011;32161;48.148;-1.554;2023-04-25T03:47:16;10.48;;;3.67;;
46463;SDS011;32161;48.148;-1.554;2023-04-25T03:49:43;10.18;;;3.72;;
46463;SDS011;32161;48.148;-1.554;2023-04-25T03:52:11;7.25;;;2.78;;
46463;SDS011;32161;48.148;-1.554;2023-04-25T03:54:39;8.93;;;3.22;;
46463;SDS011;32161;48.148;-1.554;2023-04-25T03:57:08;7.80;;;2.72;;
46463;SDS011;32161;48.148;-1.554;2023-04-25T03:59:35;11.65;;;5.32;;
46463;SDS011;32161;48.148;-1.554;2023-04-25T04:02:03;8.93;;;3.00;;
46463;SDS011;32161;48.148;-1.554;2023-04-25T04:04:31;10.10;;;3.60;;
46463;SDS011;32161;48.148;-1.554;2023-04-25T04:06:58;9.93;;;3.17;;
46463;SDS011;32161;48.148;-1.554;2023-04-25T04:09:26;11.98;;;3.47;;
46463;SDS011;32161;48.148;-1.554;2023-04-25T04:11:53;11.25;;;3.58;;
46463;SDS011;32161;48.148;-1.554;2023-04-25T04:14:22;11.18;;;4.07;;
46463;SDS011;32161;48.148;-1.554;2023-04-25T04:16:50;9.75;;;4.07;;
46463;SDS011;32161;48.148;-1.554;2023-04-25T04:19:18;10.57;;;3.67;;
46463;SDS011;32161;48.148;-1.554;2023-04-25T04:21:45;10.55;;;5.18;;
46463;SDS011;32161;48.148;-1.554;2023-04-25T04:24:13;12.02;;;4.43;;
46463;SDS011;32161;48.148;-1.554;2023-04-25T04:26:41;12.77;;;3.60;;
46463;SDS011;32161;48.148;-1.554;2023-04-25T04:29:10;8.93;;;2.85;;
46463;SDS011;32161;48.148;-1.554;2023-04-25T04:31:47;12.35;;;4.43;;
46463;SDS011;32161;48.148;-1.554;2023-04-25T04:34:15;8.77;;;3.70;;
46463;SDS011;32161;48.148;-1.554;2023-04-25T04:36:44;10.88;;;4.32;;
46463;SDS011;32161;48.148;-1.554;2023-04-25T04:39:12;7.13;;;3.35;;
46463;SDS011;32161;48.148;-1.554;2023-04-25T04:41:39;9.27;;;4.30;;
46463;SDS011;32161;48.148;-1.554;2023-04-25T04:44:08;12.75;;;3.40;;
46463;SDS011;32161;48.148;-1.554;2023-04-25T04:46:35;9.18;;;3.65;;
46463;SDS011;32161;48.148;-1.554;2023-04-25T04:49:08;5.78;;;3.38;;
46463;SDS011;32161;48.148;-1.554;2023-04-25T04:51:36;8.98;;;3.47;;
46463;SDS011;32161;48.148;-1.554;2023-04-25T04:54:03;7.40;;;3.30;;
46463;SDS011;32161;48.148;-1.554;2023-04-25T04:56:31;11.85;;;3.75;;
46463;SDS011;32161;48.148;-1.554;2023-04-25T04:59:00;7.03;;;3.95;;
46463;SDS011;32161;48.148;-1.554;2023-04-25T05:01:28;10.35;;;3.58;;
46463;SDS011;32161;48.148;-1.554;2023-04-25T05:03:56;12.52;;;4.75;;
46463;SDS011;32161;48.148;-1.554;2023-04-25T05:06:27;9.05;;;3.60;;
46463;SDS011;32161;48.148;-1.554;2023-04-25T05:08:55;9.48;;;3.88;;
46463;SDS011;32161;48.148;-1.554;2023-04-25T05:11:23;9.65;;;3.67;;
46463;SDS011;32161;48.148;-1.554;2023-04-25T05:13:51;12.35;;;4.07;;
46463;SDS011;32161;48.148;-1.554;2023-04-25T05:16:19;7.35;;;3.45;;
46463;SDS011;32161;48.148;-1.554;2023-04-25T05:18:47;4.95;;;2.83;;
46463;SDS011;32161;48.148;-1.554;2023-04-25T05:21:15;5.72;;;3.58;;
46463;SDS011;32161;48.148;-1.554;2023-04-25T05:23:44;9.07;;;3.92;;
46463;SDS011;32161;48.148;-1.554;2023-04-25T05:26:11;7.85;;;2.97;;
46463;SDS011;32161;48.148;-1.554;2023-04-25T05:28:39;7.30;;;3.55;;
46463;SDS011;32161;48.148;-1.554;2023-04-25T05:31:08;9.35;;;3.83;;
46463;SDS011;32161;48.148;-1.554;2023-04-25T05:33:36;6.00;;;3.33;;
46463;SDS011;32161;48.148;-1.554;2023-04-25T05:36:04;5.93;;;3.33;;
46463;SDS011;32161;48.148;-1.554;2023-04-25T05:38:33;4.28;;;3.22;;
46463;SDS011;32161;48.148;-1.554;2023-04-25T05:41:02;7.25;;;4.07;;
46463;SDS011;32161;48.148;-1.554;2023-04-25T05:43:30;10.48;;;4.13;;
46463;SDS011;32161;48.148;-1.554;2023-04-25T05:45:57;11.48;;;4.60;;
46463;SDS011;32161;48.148;-1.554;2023-04-25T05:48:26;10.35;;;4.25;;
46463;SDS011;32161;48.148;-1.554;2023-04-25T05:50:54;13.20;;;4.60;;
46463;SDS011;32161;48.148;-1.554;2023-04-25T05:53:21;7.40;;;4.20;;
46463;SDS011;32161;48.148;-1.554;2023-04-25T05:55:49;10.30;;;4.00;;
46463;SDS011;32161;48.148;-1.554;2023-04-25T05:58:18;5.40;;;3.33;;
46463;SDS011;32161;48.148;-1.554;2023-04-25T06:00:45;6.00;;;3.67;;
46463;SDS011;32161;48.148;-1.554;2023-04-25T06:03:13;11.85;;;3.78;;
46463;SDS011;32161;48.148;-1.554;2023-04-25T06:05:41;10.90;;;3.63;;
46463;SDS011;32161;48.148;-1.554;2023-04-25T06:08:09;9.35;;;4.03;;
46463;SDS011;32161;48.148;-1.554;2023-04-25T06:10:37;8.98;;;4.95;;
46463;SDS011;32161;48.148;-1.554;2023-04-25T06:13:04;9.23;;;4.18;;
46463;SDS011;32161;48.148;-1.554;2023-04-25T06:15:34;9.52;;;4.63;;
46463;SDS011;32161;48.148;-1.554;2023-04-25T06:18:01;5.68;;;3.90;;
46463;SDS011;32161;48.148;-1.554;2023-04-25T06:20:29;12.18;;;3.75;;
46463;SDS011;32161;48.148;-1.554;2023-04-25T06:22:56;8.50;;;3.83;;
46463;SDS011;32161;48.148;-1.554;2023-04-25T06:25:24;7.93;;;3.83;;
46463;SDS011;32161;48.148;-1.554;2023-04-25T06:27:52;8.65;;;4.20;;
46463;SDS011;32161;48.148;-1.554;2023-04-25T06:30:19;7.45;;;3.97;;
46463;SDS011;32161;48.148;-1.554;2023-04-25T06:32:52;11.32;;;4.22;;
46463;SDS011;32161;48.148;-1.554;2023-04-25T06:35:19;7.57;;;4.28;;
46463;SDS011;32161;48.148;-1.554;2023-04-25T06:37:47;9.07;;;4.63;;
46463;SDS011;32161;48.148;-1.554;2023-04-25T06:40:14;4.55;;;4.10;;
46463;SDS011;32161;48.148;-1.554;2023-04-25T06:42:42;8.38;;;4.53;;
46463;SDS011;32161;48.148;-1.554;2023-04-25T06:45:10;9.88;;;4.03;;
46463;SDS011;32161;48.148;-1.554;2023-04-25T06:47:38;8.35;;;4.25;;
46463;SDS011;32161;48.148;-1.554;2023-04-25T06:50:07;6.72;;;4.03;;
46463;SDS011;32161;48.148;-1.554;2023-04-25T06:52:36;9.35;;;4.43;;
46463;SDS011;32161;48.148;-1.554;2023-04-25T06:55:03;9.15;;;4.25;;
46463;SDS011;32161;48.148;-1.554;2023-04-25T06:57:32;13.68;;;4.78;;
46463;SDS011;32161;48.148;-1.554;2023-04-25T06:59:59;8.95;;;4.88;;
46463;SDS011;32161;48.148;-1.554;2023-04-25T07:02:30;11.57;;;5.07;;
46463;SDS011;32161;48.148;-1.554;2023-04-25T07:04:58;13.93;;;5.95;;
46463;SDS011;32161;48.148;-1.554;2023-04-25T07:07:27;8.88;;;4.43;;
46463;SDS011;32161;48.148;-1.554;2023-04-25T07:09:54;14.35;;;5.28;;
46463;SDS011;32161;48.148;-1.554;2023-04-25T07:12:22;6.28;;;4.53;;
46463;SDS011;32161;48.148;-1.554;2023-04-25T07:14:50;10.80;;;5.35;;
46463;SDS011;32161;48.148;-1.554;2023-04-25T07:17:17;7.57;;;4.63;;
46463;SDS011;32161;48.148;-1.554;2023-04-25T07:19:45;7.70;;;4.70;;
46463;SDS011;32161;48.148;-1.554;2023-04-25T07:22:12;9.73;;;4.47;;
46463;SDS011;32161;48.148;-1.554;2023-04-25T07:24:41;16.17;;;5.30;;
46463;SDS011;32161;48.148;-1.554;2023-04-25T07:27:12;8.20;;;5.20;;
46463;SDS011;32161;48.148;-1.554;2023-04-25T07:29:40;9.10;;;5.55;;
46463;SDS011;32161;48.148;-1.554;2023-04-25T07:32:07;10.02;;;5.15;;
46463;SDS011;32161;48.148;-1.554;2023-04-25T07:34:37;14.45;;;6.05;;
46463;SDS011;32161;48.148;-1.554;2023-04-25T07:37:05;10.95;;;6.28;;
46463;SDS011;32161;48.148;-1.554;2023-04-25T07:39:32;11.45;;;6.88;;
46463;SDS011;32161;48.148;-1.554;2023-04-25T07:42:01;9.23;;;5.65;;
46463;SDS011;32161;48.148;-1.554;2023-04-25T07:44:31;7.70;;;5.75;;
46463;SDS011;32161;48.148;-1.554;2023-04-25T07:47:03;8.63;;;5.80;;
46463;SDS011;32161;48.148;-1.554;2023-04-25T07:49:32;12.38;;;6.32;;
46463;SDS011;32161;48.148;-1.554;2023-04-25T07:52:00;9.15;;;5.70;;
46463;SDS011;32161;48.148;-1.554;2023-04-25T07:54:29;7.78;;;6.68;;
46463;SDS011;32161;48.148;-1.554;2023-04-25T07:56:57;8.73;;;6.38;;
46463;SDS011;32161;48.148;-1.554;2023-04-25T07:59:26;9.02;;;5.95;;
46463;SDS011;32161;48.148;-1.554;2023-04-25T08:01:54;11.48;;;5.65;;
46463;SDS011;32161;48.148;-1.554;2023-04-25T08:04:22;10.98;;;6.00;;
46463;SDS011;32161;48.148;-1.554;2023-04-25T08:06:50;10.23;;;6.40;;
46463;SDS011;32161;48.148;-1.554;2023-04-25T08:09:18;10.88;;;7.13;;
46463;SDS011;32161;48.148;-1.554;2023-04-25T08:11:46;7.22;;;6.43;;
46463;SDS011;32161;48.148;-1.554;2023-04-25T08:14:14;8.20;;;5.80;;
46463;SDS011;32161;48.148;-1.554;2023-04-25T08:16:43;8.05;;;5.38;;
46463;SDS011;32161;48.148;-1.554;2023-04-25T08:19:11;6.28;;;4.88;;
46463;SDS011;32161;48.148;-1.554;2023-04-25T08:21:38;10.73;;;5.90;;
46463;SDS011;32161;48.148;-1.554;2023-04-25T08:24:06;9.93;;;5.50;;
46463;SDS011;32161;48.148;-1.554;2023-04-25T08:26:34;5.90;;;5.30;;
46463;SDS011;32161;48.148;-1.554;2023-04-25T08:29:02;9.05;;;5.63;;
46463;SDS011;32161;48.148;-1.554;2023-04-25T08:31:30;8.95;;;5.15;;
46463;SDS011;32161;48.148;-1.554;2023-04-25T08:34:00;10.07;;;5.80;;
46463;SDS011;32161;48.148;-1.554;2023-04-25T08:36:27;6.43;;;4.88;;
46463;SDS011;32161;48.148;-1.554;2023-04-25T08:38:55;5.53;;;4.35;;
46463;SDS011;32161;48.148;-1.554;2023-04-25T08:41:23;7.18;;;4.90;;
46463;SDS011;32161;48.148;-1.554;2023-04-25T08:43:51;4.97;;;4.40;;
46463;SDS011;32161;48.148;-1.554;2023-04-25T08:46:22;5.82;;;4.80;;
46463;SDS011;32161;48.148;-1.554;2023-04-25T08:48:50;7.22;;;4.65;;
46463;SDS011;32161;48.148;-1.554;2023-04-25T08:51:25;7.82;;;4.28;;
46463;SDS011;32161;48.148;-1.554;2023-04-25T08:53:57;8.90;;;4.40;;
46463;SDS011;32161;48.148;-1.554;2023-04-25T08:56:36;8.02;;;4.88;;
46463;SDS011;32161;48.148;-1.554;2023-04-25T08:59:07;7.70;;;4.30;;
46463;SDS011;32161;48.148;-1.554;2023-04-25T09:01:34;5.70;;;4.20;;
46463;SDS011;32161;48.148;-1.554;2023-04-25T09:04:02;5.30;;;4.80;;
46463;SDS011;32161;48.148;-1.554;2023-04-25T09:06:32;6.40;;;3.95;;
46463;SDS011;32161;48.148;-1.554;2023-04-25T09:09:01;8.00;;;4.50;;
46463;SDS011;32161;48.148;-1.554;2023-04-25T09:11:31;7.75;;;4.70;;
46463;SDS011;32161;48.148;-1.554;2023-04-25T09:14:10;4.43;;;4.00;;
46463;SDS011;32161;48.148;-1.554;2023-04-25T09:19:30;5.70;;;3.58;;
46463;SDS011;32161;48.148;-1.554;2023-04-25T09:22:02;6.85;;;4.03;;
46463;SDS011;32161;48.148;-1.554;2023-04-25T09:24:31;6.05;;;3.55;;
46463;SDS011;32161;48.148;-1.554;2023-04-25T09:27:05;5.03;;;3.70;;
46463;SDS011;32161;48.148;-1.554;2023-04-25T09:29:33;4.78;;;3.78;;
46463;SDS011;32161;48.148;-1.554;2023-04-25T09:32:16;4.40;;;3.88;;
46463;SDS011;32161;48.148;-1.554;2023-04-25T09:34:46;10.27;;;4.05;;
46463;SDS011;32161;48.148;-1.554;2023-04-25T09:37:21;4.05;;;3.65;;
46463;SDS011;32161;48.148;-1.554;2023-04-25T09:39:51;6.53;;;3.85;;
46463;SDS011;32161;48.148;-1.554;2023-04-25T09:42:21;5.07;;;3.60;;
46463;SDS011;32161;48.148;-1.554;2023-04-25T09:44:51;4.40;;;3.78;;
46463;SDS011;32161;48.148;-1.554;2023-04-25T09:47:20;5.13;;;3.75;;
46463;SDS011;32161;48.148;-1.554;2023-04-25T09:49:50;8.90;;;3.95;;
46463;SDS011;32161;48.148;-1.554;2023-04-25T09:52:21;10.30;;;3.58;;
46463;SDS011;32161;48.148;-1.554;2023-04-25T09:54:51;5.20;;;3.45;;
46463;SDS011;32161;48.148;-1.554;2023-04-25T09:57:19;4.88;;;3.72;;
46463;SDS011;32161;48.148;-1.554;2023-04-25T09:59:49;7.97;;;4.40;;
46463;SDS011;32161;48.148;-1.554;2023-04-25T10:02:19;5.15;;;3.03;;
46463;SDS011;32161;48.148;-1.554;2023-04-25T10:04:50;4.68;;;3.08;;
46463;SDS011;32161;48.148;-1.554;2023-04-25T10:07:20;3.85;;;2.85;;
46463;SDS011;32161;48.148;-1.554;2023-04-25T10:09:58;4.10;;;2.63;;
46463;SDS011;32161;48.148;-1.554;2023-04-25T10:12:28;6.20;;;2.67;;
46463;SDS011;32161;48.148;-1.554;2023-04-25T10:14:57;3.75;;;2.70;;
46463;SDS011;32161;48.148;-1.554;2023-04-25T10:17:26;3.22;;;3.03;;
46463;SDS011;32161;48.148;-1.554;2023-04-25T10:19:54;4.10;;;3.38;;
46463;SDS011;32161;48.148;-1.554;2023-04-25T10:22:26;5.45;;;3.45;;
46463;SDS011;32161;48.148;-1.554;2023-04-25T10:24:59;4.90;;;3.33;;
46463;SDS011;32161;48.148;-1.554;2023-04-25T10:27:29;5.13;;;2.85;;
46463;SDS011;32161;48.148;-1.554;2023-04-25T10:30:00;4.20;;;3.20;;
46463;SDS011;32161;48.148;-1.554;2023-04-25T10:32:30;3.22;;;2.63;;
46463;SDS011;32161;48.148;-1.554;2023-04-25T10:35:02;3.20;;;2.90;;
46463;SDS011;32161;48.148;-1.554;2023-04-25T10:37:39;4.05;;;3.08;;
46463;SDS011;32161;48.148;-1.554;2023-04-25T10:40:25;5.68;;;2.90;;
46463;SDS011;32161;48.148;-1.554;2023-04-25T10:42:53;7.18;;;3.10;;
46463;SDS011;32161;48.148;-1.554;2023-04-25T10:45:21;6.13;;;3.88;;
46463;SDS011;32161;48.148;-1.554;2023-04-25T10:47:49;7.43;;;3.58;;
46463;SDS011;32161;48.148;-1.554;2023-04-25T10:50:17;3.97;;;2.80;;
46463;SDS011;32161;48.148;-1.554;2023-04-25T10:52:46;4.65;;;2.88;;
46463;SDS011;32161;48.148;-1.554;2023-04-25T10:55:14;6.53;;;3.28;;
46463;SDS011;32161;48.148;-1.554;2023-04-25T10:57:42;3.58;;;3.28;;
46463;SDS011;32161;48.148;-1.554;2023-04-25T11:00:14;7.15;;;3.42;;
46463;SDS011;32161;48.148;-1.554;2023-04-25T11:02:44;6.38;;;3.50;;
46463;SDS011;32161;48.148;-1.554;2023-04-25T11:05:22;3.65;;;3.30;;
46463;SDS011;32161;48.148;-1.554;2023-04-25T11:08:00;3.35;;;3.13;;
46463;SDS011;32161;48.148;-1.554;2023-04-25T11:10:30;4.18;;;2.83;;
46463;SDS011;32161;48.148;-1.554;2023-04-25T11:13:00;3.55;;;3.20;;
46463;SDS011;32161;48.148;-1.554;2023-04-25T11:15:28;4.03;;;3.05;;
46463;SDS011;32161;48.148;-1.554;2023-04-25T11:17:55;4.43;;;3.50;;
46463;SDS011;32161;48.148;-1.554;2023-04-25T11:20:25;5.43;;;3.22;;
46463;SDS011;32161;48.148;-1.554;2023-04-25T11:22:54;7.35;;;3.35;;
46463;SDS011;32161;48.148;-1.554;2023-04-25T11:25:27;4.40;;;3.28;;
46463;SDS011;32161;48.148;-1.554;2023-04-25T11:27:56;4.30;;;3.55;;
46463;SDS011;32161;48.148;-1.554;2023-04-25T11:30:26;3.85;;;2.85;;
46463;SDS011;32161;48.148;-1.554;2023-04-25T11:32:55;4.35;;;3.10;;
46463;SDS011;32161;48.148;-1.554;2023-04-25T11:35:23;3.63;;;2.97;;
46463;SDS011;32161;48.148;-1.554;2023-04-25T11:37:51;3.38;;;3.15;;
46463;SDS011;32161;48.148;-1.554;2023-04-25T11:40:19;3.47;;;2.50;;
46463;SDS011;32161;48.148;-1.554;2023-04-25T11:42:48;5.05;;;3.05;;
46463;SDS011;32161;48.148;-1.554;2023-04-25T11:45:16;3.08;;;2.67;;
46463;SDS011;32161;48.148;-1.554;2023-04-25T11:47:43;3.88;;;2.17;;
46463;SDS011;32161;48.148;-1.554;2023-04-25T11:50:11;3.13;;;2.83;;
46463;SDS011;32161;48.148;-1.554;2023-04-25T11:52:39;4.68;;;2.70;;
46463;SDS011;32161;48.148;-1.554;2023-04-25T11:55:09;2.97;;;2.53;;
46463;SDS011;32161;48.148;-1.554;2023-04-25T11:57:40;3.20;;;2.33;;
46463;SDS011;32161;48.148;-1.554;2023-04-25T12:00:12;3.83;;;2.80;;
46463;SDS011;32161;48.148;-1.554;2023-04-25T12:02:42;3.63;;;2.33;;
46463;SDS011;32161;48.148;-1.554;2023-04-25T12:05:11;8.60;;;4.20;;
46463;SDS011;32161;48.148;-1.554;2023-04-25T12:07:41;5.70;;;2.17;;
46463;SDS011;32161;48.148;-1.554;2023-04-25T12:10:10;3.08;;;2.42;;
46463;SDS011;32161;48.148;-1.554;2023-04-25T12:12:41;3.47;;;2.05;;
46463;SDS011;32161;48.148;-1.554;2023-04-25T12:15:13;3.38;;;2.40;;
46463;SDS011;32161;48.148;-1.554;2023-04-25T12:17:44;2.30;;;2.03;;
46463;SDS011;32161;48.148;-1.554;2023-04-25T12:20:14;3.40;;;2.15;;
46463;SDS011;32161;48.148;-1.554;2023-04-25T12:22:43;3.28;;;2.25;;
46463;SDS011;32161;48.148;-1.554;2023-04-25T12:28:11;3.03;;;2.35;;
46463;SDS011;32161;48.148;-1.554;2023-04-25T12:33:26;2.63;;;2.08;;
46463;SDS011;32161;48.148;-1.554;2023-04-25T12:35:55;2.67;;;2.03;;
46463;SDS011;32161;48.148;-1.554;2023-04-25T12:38:25;3.15;;;2.67;;
46463;SDS011;32161;48.148;-1.554;2023-04-25T12:40:55;3.25;;;1.90;;
46463;SDS011;32161;48.148;-1.554;2023-04-25T12:43:23;3.13;;;1.95;;
46463;SDS011;32161;48.148;-1.554;2023-04-25T12:45:52;2.78;;;2.47;;
46463;SDS011;32161;48.148;-1.554;2023-04-25T12:48:22;2.65;;;2.03;;
46463;SDS011;32161;48.148;-1.554;2023-04-25T12:50:50;3.95;;;2.60;;
46463;SDS011;32161;48.148;-1.554;2023-04-25T12:53:19;3.75;;;2.03;;
46463;SDS011;32161;48.148;-1.554;2023-04-25T12:55:49;4.00;;;2.63;;
46463;SDS011;32161;48.148;-1.554;2023-04-25T12:58:18;2.65;;;2.33;;
46463;SDS011;32161;48.148;-1.554;2023-04-25T13:00:46;4.43;;;2.33;;
46463;SDS011;32161;48.148;-1.554;2023-04-25T13:03:14;3.65;;;2.72;;
46463;SDS011;32161;48.148;-1.554;2023-04-25T13:05:42;3.38;;;2.38;;
46463;SDS011;32161;48.148;-1.554;2023-04-25T13:08:10;3.08;;;2.13;;
46463;SDS011;32161;48.148;-1.554;2023-04-25T13:10:38;3.72;;;2.40;;
46463;SDS011;32161;48.148;-1.554;2023-04-25T13:13:06;4.43;;;2.55;;
46463;SDS011;32161;48.148;-1.554;2023-04-25T13:15:33;6.72;;;2.88;;
46463;SDS011;32161;48.148;-1.554;2023-04-25T13:18:02;4.13;;;2.72;;
46463;SDS011;32161;48.148;-1.554;2023-04-25T13:20:30;3.65;;;2.72;;
46463;SDS011;32161;48.148;-1.554;2023-04-25T13:22:59;2.83;;;2.63;;
46463;SDS011;32161;48.148;-1.554;2023-04-25T13:25:27;7.13;;;2.70;;
46463;SDS011;32161;48.148;-1.554;2023-04-25T13:27:55;4.25;;;2.70;;
46463;SDS011;32161;48.148;-1.554;2023-04-25T13:30:22;7.22;;;3.05;;
46463;SDS011;32161;48.148;-1.554;2023-04-25T13:32:50;6.28;;;2.80;;
46463;SDS011;32161;48.148;-1.554;2023-04-25T13:35:19;4.88;;;2.67;;
46463;SDS011;32161;48.148;-1.554;2023-04-25T13:37:46;5.55;;;2.60;;
46463;SDS011;32161;48.148;-1.554;2023-04-25T13:40:16;3.53;;;3.10;;
46463;SDS011;32161;48.148;-1.554;2023-04-25T13:42:44;7.25;;;4.28;;
46463;SDS011;32161;48.148;-1.554;2023-04-25T13:45:11;4.18;;;3.15;;
46463;SDS011;32161;48.148;-1.554;2023-04-25T13:47:40;6.47;;;3.15;;
46463;SDS011;32161;48.148;-1.554;2023-04-25T13:50:07;6.15;;;3.70;;
46463;SDS011;32161;48.148;-1.554;2023-04-25T13:52:36;3.25;;;2.90;;
46463;SDS011;32161;48.148;-1.554;2023-04-25T13:55:04;3.92;;;3.38;;
46463;SDS011;32161;48.148;-1.554;2023-04-25T13:57:35;3.63;;;3.22;;
46463;SDS011;32161;48.148;-1.554;2023-04-25T14:00:03;3.90;;;3.60;;
46463;SDS011;32161;48.148;-1.554;2023-04-25T14:02:33;3.90;;;3.47;;
46463;SDS011;32161;48.148;-1.554;2023-04-25T14:05:01;2.70;;;2.53;;
46463;SDS011;32161;48.148;-1.554;2023-04-25T14:07:30;4.53;;;4.07;;
46463;SDS011;32161;48.148;-1.554;2023-04-25T14:10:00;3.90;;;3.60;;
46463;SDS011;32161;48.148;-1.554;2023-04-25T14:12:29;3.15;;;2.95;;
46463;SDS011;32161;48.148;-1.554;2023-04-25T14:14:58;4.38;;;3.78;;
46463;SDS011;32161;48.148;-1.554;2023-04-25T14:17:26;5.25;;;3.67;;
46463;SDS011;32161;48.148;-1.554;2023-04-25T14:19:54;4.30;;;3.63;;
46463;SDS011;32161;48.148;-1.554;2023-04-25T14:22:21;4.90;;;3.85;;
46463;SDS011;32161;48.148;-1.554;2023-04-25T14:24:49;4.05;;;3.72;;
46463;SDS011;32161;48.148;-1.554;2023-04-25T14:27:17;5.93;;;4.07;;
46463;SDS011;32161;48.148;-1.554;2023-04-25T14:29:45;4.32;;;3.92;;
46463;SDS011;32161;48.148;-1.554;2023-04-25T14:32:14;5.00;;;3.38;;
46463;SDS011;32161;48.148;-1.554;2023-04-25T14:34:42;4.30;;;3.92;;
46463;SDS011;32161;48.148;-1.554;2023-04-25T14:37:10;3.97;;;3.67;;
46463;SDS011;32161;48.148;-1.554;2023-04-25T14:39:37;5.43;;;3.75;;
46463;SDS011;32161;48.148;-1.554;2023-04-25T14:42:05;5.72;;;4.20;;
46463;SDS011;32161;48.148;-1.554;2023-04-25T14:44:33;4.20;;;3.90;;
46463;SDS011;32161;48.148;-1.554;2023-04-25T14:47:00;8.38;;;3.63;;
46463;SDS011;32161;48.148;-1.554;2023-04-25T14:49:29;7.47;;;4.10;;